createdAt,value
2022-09-07T00:00:44.348Z,97.30
2022-09-07T00:03:11.618Z,97.30
2022-09-07T00:05:47.143Z,97.10
2022-09-07T00:08:15.911Z,97.40
2022-09-07T00:10:51.035Z,97.00
2022-09-07T00:13:18.244Z,96.90
2022-09-07T00:15:45.396Z,97.30
2022-09-07T00:18:12.576Z,97.30
2022-09-07T00:20:39.875Z,97.30
2022-09-07T00:23:07.285Z,97.20
2022-09-07T00:25:39.274Z,97.50
2022-09-07T00:28:08.274Z,97.80
2022-09-07T00:30:41.729Z,97.80
2022-09-07T00:33:09.725Z,97.10
2022-09-07T00:35:41.396Z,97.50
2022-09-07T00:38:09.087Z,97.50
2022-09-07T00:40:36.381Z,97.10
2022-09-07T00:43:04.349Z,97.00
2022-09-07T00:45:32.093Z,97.30
2022-09-07T00:47:59.885Z,97.30
2022-09-07T00:50:57.815Z,97.40
2022-09-07T00:53:43.589Z,98.00
2022-09-07T00:56:13.816Z,97.70
2022-09-07T00:58:43.609Z,98.00
2022-09-07T01:01:11.351Z,98.00
2022-09-07T01:03:43.947Z,98.20
2022-09-07T01:06:16.937Z,97.50
2022-09-07T01:08:47.533Z,97.60
2022-09-07T01:11:51.210Z,97.70
2022-09-07T01:14:29.254Z,97.60
2022-09-07T01:17:07.206Z,97.80
2022-09-07T01:19:53.712Z,97.50
2022-09-07T01:22:39.568Z,97.60
2022-09-07T01:25:32.492Z,97.80
2022-09-07T01:28:20.668Z,98.10
2022-09-07T01:31:09.163Z,97.90
2022-09-07T01:34:10.665Z,98.80
2022-09-07T01:36:48.210Z,98.10
2022-09-07T01:39:40.822Z,97.60
2022-09-07T01:42:14.957Z,97.70
2022-09-07T01:44:56.495Z,98.00
2022-09-07T01:47:48.643Z,98.20
2022-09-07T01:50:30.213Z,97.50
2022-09-07T01:53:15.373Z,98.10
2022-09-07T01:55:55.364Z,97.70
2022-09-07T01:58:39.713Z,97.50
2022-09-07T02:01:20.542Z,97.60
2022-09-07T02:04:02.355Z,97.40
2022-09-07T02:06:49.913Z,96.30
2022-09-07T02:09:32.046Z,98.00
2022-09-07T02:12:03.597Z,98.60
2022-09-07T02:14:46.508Z,97.90
2022-09-07T02:17:27.700Z,98.40
2022-09-07T02:20:10.253Z,98.80
2022-09-07T02:22:42.304Z,98.40
2022-09-07T02:25:13.363Z,98.60
2022-09-07T02:27:49.776Z,98.40
2022-09-07T02:30:17.761Z,98.50
2022-09-07T02:32:44.988Z,99.30
2022-09-07T02:35:12.466Z,99.00
2022-09-07T02:37:42.008Z,99.40
2022-09-07T02:40:09.856Z,98.70
2022-09-07T02:42:37.478Z,98.40
2022-09-07T02:45:08.409Z,98.90
2022-09-07T02:47:59.716Z,99.00
2022-09-07T02:50:34.564Z,98.80
2022-09-07T02:53:27.917Z,98.50
2022-09-07T02:56:25.346Z,98.60
2022-09-07T02:58:55.239Z,98.80
2022-09-07T03:01:43.620Z,99.40
2022-09-07T03:04:21.180Z,99.20
2022-09-07T03:07:03.304Z,99.40
2022-09-07T03:09:46.692Z,99.90
2022-09-07T03:12:14.475Z,99.40
2022-09-07T03:14:43.452Z,99.60
2022-09-07T03:17:10.877Z,98.90
2022-09-07T03:19:38.418Z,99.30
2022-09-07T03:22:06.520Z,99.20
2022-09-07T03:24:33.860Z,98.80
2022-09-07T03:27:01.019Z,99.20
2022-09-07T03:29:28.272Z,99.20
2022-09-07T03:31:55.344Z,99.50
2022-09-07T03:34:22.501Z,99.10
2022-09-07T03:36:49.574Z,99.20
2022-09-07T03:39:20.953Z,99.10
2022-09-07T03:41:48.395Z,99.10
2022-09-07T03:44:15.477Z,99.20
2022-09-07T03:46:42.692Z,99.90
2022-09-07T03:49:10.079Z,99.90
2022-09-07T03:51:37.316Z,99.90
2022-09-07T03:54:04.522Z,99.90
2022-09-07T03:56:31.734Z,99.90
2022-09-07T03:58:58.958Z,99.90
2022-09-07T04:01:27.486Z,99.90
2022-09-07T04:04:02.238Z,99.90
2022-09-07T04:06:30.949Z,99.90
2022-09-07T04:09:03.140Z,99.90
2022-09-07T04:11:30.397Z,99.90
2022-09-07T04:13:57.575Z,99.90
2022-09-07T04:16:26.661Z,99.90
2022-09-07T04:18:59.337Z,99.90
2022-09-07T04:21:31.827Z,99.90
2022-09-07T04:23:59.346Z,99.90
2022-09-07T04:26:28.846Z,99.90
2022-09-07T04:28:56.043Z,99.20
2022-09-07T04:31:24.163Z,99.20
2022-09-07T04:33:52.221Z,99.80
2022-09-07T04:36:20.421Z,99.10
2022-09-07T04:38:48.152Z,99.00
2022-09-07T04:41:17.439Z,99.10
2022-09-07T04:43:45.868Z,99.20
2022-09-07T04:46:16.016Z,98.90
2022-09-07T04:48:43.119Z,99.40
2022-09-07T04:51:11.570Z,99.30
2022-09-07T04:53:39.125Z,99.30
2022-09-07T04:56:06.561Z,98.90
2022-09-07T04:58:33.720Z,99.10
2022-09-07T05:01:02.454Z,99.70
2022-09-07T05:03:31.623Z,98.90
2022-09-07T05:06:01.860Z,99.20
2022-09-07T05:08:29.411Z,98.80
2022-09-07T05:10:59.768Z,99.50
2022-09-07T05:13:26.923Z,99.10
2022-09-07T05:15:54.029Z,99.00
2022-09-07T05:18:21.379Z,98.90
2022-09-07T05:20:48.643Z,99.10
2022-09-07T05:23:15.822Z,99.00
2022-09-07T05:25:44.979Z,99.00
2022-09-07T05:28:18.635Z,98.80
2022-09-07T05:36:22.831Z,99.00
2022-09-07T05:38:49.949Z,99.30
2022-09-07T05:41:19.655Z,98.60
2022-09-07T05:46:36.406Z,99.50
2022-09-07T05:49:04.191Z,99.20
2022-09-07T05:51:31.266Z,99.00
2022-09-07T05:53:58.747Z,99.60
2022-09-07T05:56:26.365Z,98.90
2022-09-07T05:58:53.456Z,99.90
2022-09-07T06:01:20.820Z,99.70
2022-09-07T06:03:47.957Z,99.00
2022-09-07T06:06:18.951Z,98.40
2022-09-07T06:08:49.249Z,97.60
2022-09-07T06:11:22.364Z,98.90
2022-09-07T06:13:50.060Z,99.90
2022-09-07T06:16:18.769Z,99.90
2022-09-07T06:18:47.555Z,99.80
2022-09-07T06:21:17.926Z,99.90
2022-09-07T06:23:45.795Z,99.90
2022-09-07T06:26:14.181Z,99.90
2022-09-07T06:28:43.718Z,99.90
2022-09-07T06:31:13.688Z,99.90
2022-09-07T06:33:42.834Z,99.90
2022-09-07T06:36:24.349Z,99.90
2022-09-07T06:38:52.182Z,99.90
2022-09-07T06:44:08.663Z,99.90
2022-09-07T06:49:23.861Z,99.90
2022-09-07T06:51:50.950Z,98.70
2022-09-07T06:57:09.250Z,99.50
2022-09-07T06:59:38.016Z,99.90
2022-09-07T07:02:06.504Z,99.30
2022-09-07T07:04:39.366Z,99.90
2022-09-07T07:07:11.983Z,99.90
2022-09-07T07:09:39.288Z,99.80
2022-09-07T07:12:06.461Z,99.60
2022-09-07T07:14:35.482Z,99.90
2022-09-07T07:17:03.655Z,99.90
2022-09-07T07:19:30.824Z,99.80
2022-09-07T07:24:45.028Z,99.90
2022-09-07T07:27:12.112Z,99.60
2022-09-07T07:29:40.532Z,99.90
2022-09-07T07:32:19.966Z,99.90
2022-09-07T07:34:47.169Z,99.00
2022-09-07T07:37:15.979Z,99.60
2022-09-07T07:42:30.213Z,99.00
2022-09-07T07:47:51.297Z,98.90
2022-09-07T07:50:34.390Z,98.70
2022-09-07T07:55:49.312Z,99.30
2022-09-07T07:58:16.369Z,99.40
2022-09-07T08:00:54.296Z,98.70
2022-09-07T08:03:23.432Z,98.60
2022-09-07T08:05:50.841Z,97.90
2022-09-07T08:08:18.634Z,98.00
2022-09-07T08:10:47.366Z,97.60
2022-09-07T08:13:15.853Z,97.70
2022-09-07T08:15:46.621Z,98.00
2022-09-07T08:18:15.797Z,98.80
2022-09-07T08:20:43.252Z,98.60
2022-09-07T08:23:10.810Z,98.80
2022-09-07T08:25:38.032Z,98.20
2022-09-07T08:28:05.557Z,98.80
2022-09-07T08:30:32.610Z,98.10
2022-09-07T08:32:59.736Z,97.90
2022-09-07T08:35:26.829Z,98.60
2022-09-07T08:37:54.481Z,98.30
2022-09-07T08:40:21.590Z,97.80
2022-09-07T08:43:01.013Z,97.10
2022-09-07T08:45:33.698Z,97.60
2022-09-07T08:48:05.287Z,97.60
2022-09-07T08:50:42.013Z,97.30
2022-09-07T08:53:16.927Z,96.80
2022-09-07T08:55:50.866Z,97.20
2022-09-07T08:58:47.684Z,97.90
2022-09-07T09:01:32.514Z,97.80
2022-09-07T09:04:17.570Z,96.00
2022-09-07T09:07:09.925Z,97.10
2022-09-07T09:10:07.314Z,96.50
2022-09-07T09:13:01.540Z,96.50
2022-09-07T09:15:54.890Z,95.90
2022-09-07T09:18:37.063Z,96.20
2022-09-07T09:21:07.947Z,96.00
2022-09-07T09:23:40.294Z,95.40
2022-09-07T09:26:10.144Z,95.80
2022-09-07T09:28:38.450Z,95.70
2022-09-07T09:31:06.007Z,95.80
2022-09-07T09:33:33.130Z,95.70
2022-09-07T09:36:02.556Z,95.00
2022-09-07T09:38:39.692Z,96.30
2022-09-07T09:41:15.144Z,94.50
2022-09-07T09:44:17.833Z,95.20
2022-09-07T09:49:41.193Z,94.30
2022-09-07T09:52:29.910Z,94.80
2022-09-07T09:55:34.409Z,94.30
2022-09-07T10:03:58.439Z,93.50
2022-09-07T10:06:30.049Z,93.20
2022-09-07T10:08:59.489Z,92.60
2022-09-07T10:14:35.212Z,93.00
2022-09-07T10:17:18.191Z,93.00
2022-09-07T10:19:45.651Z,93.20
2022-09-07T10:22:32.892Z,92.20
2022-09-07T10:25:04.031Z,91.30
2022-09-07T10:27:37.716Z,90.60
2022-09-07T10:30:15.167Z,91.30
2022-09-07T10:33:12.874Z,89.00
2022-09-07T10:35:52.925Z,89.90
2022-09-07T10:39:37.414Z,90.70
2022-09-07T10:42:29.472Z,89.90
2022-09-07T10:45:32.011Z,90.90
2022-09-07T10:48:29.657Z,91.10
2022-09-07T10:51:47.365Z,90.00
2022-09-07T10:54:46.811Z,89.10
2022-09-07T10:57:54.017Z,90.60
2022-09-07T11:00:23.121Z,88.60
2022-09-07T11:03:27.383Z,90.10
2022-09-07T11:06:35.205Z,90.60
2022-09-07T11:09:25.634Z,90.80
2022-09-07T11:12:05.729Z,90.70
2022-09-07T11:14:44.793Z,90.20
2022-09-07T11:17:18.806Z,90.10
2022-09-07T11:20:17.934Z,90.20
2022-09-07T11:23:06.034Z,90.30
2022-09-07T11:25:46.716Z,90.00
2022-09-07T11:32:19.156Z,88.50
2022-09-07T11:34:52.091Z,89.70
2022-09-07T11:37:54.761Z,90.70
2022-09-07T11:40:35.407Z,90.10
2022-09-07T11:43:23.854Z,90.20
2022-09-07T11:46:24.901Z,90.30
2022-09-07T11:49:23.770Z,90.50
2022-09-07T11:52:05.021Z,90.70
2022-09-07T11:55:39.620Z,90.30
2022-09-07T11:58:34.528Z,90.50
2022-09-07T12:01:13.237Z,91.10
2022-09-07T12:03:49.347Z,91.50
2022-09-07T12:07:12.138Z,92.00
2022-09-07T12:09:48.124Z,91.10
2022-09-07T12:12:49.288Z,91.90
2022-09-07T12:15:16.369Z,92.30
2022-09-07T12:18:25.029Z,91.10
2022-09-07T12:20:52.172Z,91.00
2022-09-07T12:23:29.799Z,90.30
2022-09-07T12:26:34.227Z,91.20
2022-09-07T12:29:29.677Z,90.90
2022-09-07T12:32:52.421Z,91.50
2022-09-07T12:34:54.258Z,92.00
2022-09-07T12:37:27.518Z,90.90
2022-09-07T12:40:29.291Z,88.90
2022-09-07T12:43:14.631Z,88.50
2022-09-07T12:45:42.426Z,89.70
2022-09-07T12:48:15.767Z,91.20
2022-09-07T12:51:04.056Z,90.70
2022-09-07T12:53:57.439Z,91.00
2022-09-07T12:56:46.642Z,90.60
2022-09-07T13:00:23.313Z,89.90
2022-09-07T13:06:16.114Z,90.50
2022-09-07T13:08:58.466Z,90.10
2022-09-07T13:11:38.235Z,89.70
2022-09-07T13:14:15.686Z,90.30
2022-09-07T13:19:50.909Z,88.90
2022-09-07T13:22:33.552Z,90.10
2022-09-07T13:25:27.255Z,91.50
2022-09-07T13:28:06.076Z,89.70
2022-09-07T13:31:01.189Z,90.00
2022-09-07T13:33:28.407Z,88.20
2022-09-07T13:36:03.222Z,89.10
2022-09-07T13:38:32.504Z,85.90
2022-09-07T13:41:15.454Z,87.30
2022-09-07T13:43:48.528Z,89.30
2022-09-07T13:46:40.603Z,87.80
2022-09-07T13:49:34.639Z,89.90
2022-09-07T13:52:22.514Z,90.10
2022-09-07T13:55:34.214Z,90.90
2022-09-07T13:58:18.124Z,89.50
2022-09-07T14:00:54.198Z,90.10
2022-09-07T14:03:25.793Z,88.90
2022-09-07T14:06:14.859Z,85.70
2022-09-07T14:08:57.039Z,86.20
2022-09-07T14:11:40.393Z,82.80
2022-09-07T14:14:47.239Z,81.80
2022-09-07T14:17:18.210Z,78.40
2022-09-07T14:19:50.242Z,78.30
2022-09-07T14:22:23.405Z,76.60
2022-09-07T14:25:08.413Z,76.20
2022-09-07T14:27:41.500Z,72.70
2022-09-07T14:30:15.844Z,72.70
2022-09-07T14:32:43.993Z,73.90
2022-09-07T14:35:26.165Z,76.20
2022-09-07T14:37:54.002Z,74.50
2022-09-07T14:40:26.234Z,78.10
2022-09-07T14:42:55.907Z,78.80
2022-09-07T14:45:22.873Z,80.10
2022-09-07T14:47:54.323Z,82.70
2022-09-07T14:50:41.199Z,83.00
2022-09-07T14:53:34.821Z,87.70
2022-09-07T14:56:08.574Z,87.50
2022-09-07T14:58:36.831Z,88.10
2022-09-07T15:04:03.006Z,87.80
2022-09-07T15:10:17.437Z,91.50
2022-09-07T15:12:51.484Z,91.40
2022-09-07T15:15:46.817Z,90.80
2022-09-07T15:18:46.434Z,90.50
2022-09-07T15:21:43.795Z,90.50
2022-09-07T15:24:11.859Z,90.10
2022-09-07T15:27:03.381Z,94.90
2022-09-07T15:29:31.599Z,99.90
2022-09-07T15:32:04.943Z,99.90
2022-09-07T15:34:34.910Z,99.90
2022-09-07T15:37:03.657Z,99.90
2022-09-07T15:39:31.586Z,99.90
2022-09-07T15:42:00.522Z,99.90
2022-09-07T15:44:46.993Z,99.90
2022-09-07T15:50:01.425Z,99.90
2022-09-07T15:52:31.277Z,99.90
2022-09-07T15:54:59.574Z,99.90
2022-09-07T16:00:14.620Z,99.90
2022-09-07T16:05:31.227Z,99.90
2022-09-07T16:11:05.447Z,99.90
2022-09-07T16:13:35.800Z,99.90
2022-09-07T16:16:05.827Z,99.90
2022-09-07T16:18:38.627Z,99.90
2022-09-07T16:21:11.780Z,99.90
2022-09-07T16:23:42.307Z,99.90
2022-09-07T16:26:13.073Z,99.90
2022-09-07T16:28:47.176Z,99.90
2022-09-07T16:31:18.327Z,99.90
2022-09-07T16:33:45.466Z,99.90
2022-09-07T16:36:15.971Z,99.90
2022-09-07T16:38:46.016Z,99.90
2022-09-07T16:41:17.739Z,99.90
2022-09-07T16:43:46.082Z,99.90
2022-09-07T16:46:15.654Z,99.90
2022-09-07T16:48:44.109Z,99.90
2022-09-07T16:51:16.371Z,99.90
2022-09-07T16:53:43.843Z,99.90
2022-09-07T16:56:13.663Z,99.90
2022-09-07T16:58:49.573Z,99.90
2022-09-07T17:01:21.642Z,99.90
2022-09-07T17:03:51.675Z,99.90
2022-09-07T17:06:20.875Z,99.90
2022-09-07T17:08:48.220Z,99.90
2022-09-07T17:11:20.700Z,99.90
2022-09-07T17:13:48.350Z,99.90
2022-09-07T17:16:21.292Z,99.90
2022-09-07T17:21:39.190Z,99.90
2022-09-07T17:24:08.061Z,99.90
2022-09-07T17:26:35.157Z,99.90
2022-09-07T17:29:02.697Z,99.90
2022-09-07T17:34:20.827Z,99.90
2022-09-07T17:36:48.323Z,99.90
2022-09-07T17:39:17.784Z,99.90
2022-09-07T17:41:46.816Z,99.90
2022-09-07T17:44:15.212Z,99.90
2022-09-07T17:55:38.796Z,99.90
2022-09-07T17:58:05.913Z,99.90
2022-09-07T18:00:34.536Z,99.90
2022-09-07T18:07:44.356Z,99.90
2022-09-07T18:10:11.547Z,99.90
2022-09-07T18:12:39.038Z,99.90
2022-09-07T18:15:21.482Z,99.90
2022-09-07T18:17:48.558Z,99.90
2022-09-07T18:20:15.718Z,99.90
2022-09-07T18:22:46.210Z,99.90
2022-09-07T18:25:13.348Z,99.90
2022-09-07T18:27:40.729Z,99.90
2022-09-07T18:30:09.474Z,99.90
2022-09-07T18:32:36.573Z,99.90
2022-09-07T18:35:03.725Z,99.90
2022-09-07T18:38:07.096Z,99.90
2022-09-07T18:40:38.229Z,99.90
2022-09-07T18:43:29.288Z,99.90
2022-09-07T18:46:21.357Z,99.90
2022-09-07T18:48:49.148Z,99.90
2022-09-07T18:51:17.113Z,99.90
2022-09-07T18:53:44.168Z,99.90
2022-09-07T18:56:16.616Z,99.90
2022-09-07T18:58:45.533Z,99.90
2022-09-07T19:01:29.036Z,99.90
2022-09-07T19:03:57.513Z,99.90
2022-09-07T19:06:25.703Z,99.90
2022-09-07T19:08:54.170Z,99.90
2022-09-07T19:11:26.650Z,99.90
2022-09-07T19:17:58.298Z,99.90
2022-09-07T19:20:26.198Z,99.90
2022-09-07T19:23:22.309Z,99.90
2022-09-07T19:25:49.423Z,99.90
2022-09-07T19:28:19.197Z,99.90
2022-09-07T19:31:01.310Z,99.90
2022-09-07T19:33:28.525Z,99.90
2022-09-07T19:35:56.599Z,99.90
2022-09-07T19:38:24.146Z,99.90
2022-09-07T19:41:13.076Z,99.90
2022-09-07T19:43:40.204Z,99.90
2022-09-07T19:46:07.352Z,99.90
2022-09-07T19:48:39.342Z,99.90
2022-09-07T19:51:08.504Z,99.90
2022-09-07T19:56:29.274Z,99.90
2022-09-07T19:58:56.378Z,99.90
2022-09-07T20:01:26.258Z,99.90
2022-09-07T20:04:08.493Z,99.90
2022-09-07T20:06:56.689Z,99.90
2022-09-07T20:09:24.915Z,99.90
2022-09-07T20:11:52.272Z,99.90
2022-09-07T20:14:20.785Z,99.90
2022-09-07T20:16:48.086Z,99.90
2022-09-07T20:19:15.392Z,99.90
2022-09-07T20:21:43.260Z,99.90
2022-09-07T20:24:14.775Z,99.90
2022-09-07T20:26:42.218Z,99.90
2022-09-07T20:32:00.245Z,99.90
2022-09-07T20:34:28.481Z,99.90
2022-09-07T20:36:56.902Z,99.90
2022-09-07T20:39:24.340Z,99.90
2022-09-07T20:41:51.723Z,99.90
2022-09-07T20:44:19.056Z,99.90
2022-09-07T20:46:46.224Z,99.90
2022-09-07T20:49:13.438Z,99.90
2022-09-07T20:51:40.545Z,99.90
2022-09-07T20:54:07.820Z,99.90
2022-09-07T20:56:35.229Z,99.90
2022-09-07T20:59:03.292Z,99.90
2022-09-07T21:01:32.294Z,99.90
2022-09-07T21:04:08.021Z,99.90
2022-09-07T21:06:35.649Z,99.90
2022-09-07T21:09:03.014Z,99.90
2022-09-07T21:11:32.557Z,99.90
2022-09-07T21:14:01.988Z,99.90
2022-09-07T21:16:29.881Z,99.90
2022-09-07T21:19:00.719Z,99.90
2022-09-07T21:21:29.892Z,99.90
2022-09-07T21:23:59.628Z,99.90
2022-09-07T21:26:30.985Z,99.90
2022-09-07T21:29:00.692Z,99.90
2022-09-07T21:31:29.676Z,99.90
2022-09-07T21:33:58.980Z,99.90
2022-09-07T21:36:27.001Z,99.90
2022-09-07T21:38:54.686Z,99.90
2022-09-07T21:41:24.194Z,99.90
2022-09-07T21:43:56.101Z,99.90
2022-09-07T21:46:23.568Z,99.90
2022-09-07T21:48:52.660Z,99.90
2022-09-07T21:51:19.784Z,99.90
2022-09-07T21:53:55.311Z,99.90
2022-09-07T21:56:23.230Z,99.90
2022-09-07T21:59:01.311Z,99.90
2022-09-07T22:01:30.345Z,99.90
2022-09-07T22:03:59.720Z,99.90
2022-09-07T22:06:28.099Z,99.90
2022-09-07T22:08:56.025Z,99.90
2022-09-07T22:11:24.775Z,99.90
2022-09-07T22:13:59.817Z,99.90
2022-09-07T22:16:27.162Z,99.90
2022-09-07T22:18:54.802Z,99.90
2022-09-07T22:21:25.234Z,99.90
2022-09-07T22:23:57.157Z,99.90
2022-09-07T22:26:27.704Z,99.90
2022-09-07T22:28:58.857Z,99.90
2022-09-07T22:31:30.699Z,99.90
2022-09-07T22:33:59.498Z,99.90
2022-09-07T22:36:31.006Z,99.90
2022-09-07T22:39:24.513Z,99.90
2022-09-07T22:41:51.614Z,99.90
2022-09-07T22:44:18.883Z,99.90
2022-09-07T22:46:48.531Z,99.90
2022-09-07T22:49:17.188Z,99.90
2022-09-07T22:51:45.356Z,99.90
2022-09-07T22:54:13.407Z,99.90
2022-09-07T22:56:40.907Z,99.90
2022-09-07T22:59:09.421Z,99.90
2022-09-07T23:01:39.136Z,99.90
2022-09-07T23:04:07.612Z,99.90
2022-09-07T23:06:40.209Z,99.90
2022-09-07T23:09:11.033Z,99.90
2022-09-07T23:11:39.770Z,99.90
2022-09-07T23:14:11.784Z,99.90
2022-09-07T23:16:39.285Z,99.90
2022-09-07T23:19:07.034Z,99.90
2022-09-07T23:21:34.220Z,99.90
2022-09-07T23:24:01.769Z,99.90
2022-09-07T23:26:31.389Z,99.90
2022-09-07T23:29:02.433Z,99.90
2022-09-07T23:31:32.349Z,99.90
2022-09-07T23:34:00.354Z,99.90
2022-09-07T23:36:28.355Z,99.90
2022-09-07T23:38:57.484Z,99.90
2022-09-07T23:41:25.202Z,99.90
2022-09-07T23:43:53.718Z,99.90
2022-09-07T23:46:21.357Z,99.90
2022-09-07T23:48:49.275Z,99.90
2022-09-07T23:51:22.792Z,99.90
2022-09-07T23:53:51.388Z,99.90
2022-09-07T23:56:20.163Z,99.90
2022-09-07T23:58:47.590Z,99.90
